UAL1156 PHNL-KLAX
Flight info
| Callsign | UAL1156 |
|---|---|
| Flight time | 4h 35m |
| Altitude | 35000 |
| Route | MKK5 KOLEA CLUTS R465 CIVIT/N0482F370 R585 GITLE ADUMM GALIP R585 AUDIA SNAXX RYDRR2 |
| Aircraft | B77W/H-SDE1E2E3FGHIJ2J3J4J5M1RWXY/LB1D1 |
Departure
| Time | 2026-04-21 23:55 |
|---|---|
| Airport | Daniel K. Inouye International Airport (PHNL) |
Arrival
| Time | 2026-04-22 04:30 |
|---|---|
| Airport | Los Angeles International Airport (KLAX) |
| Time | Latitude | Longitude | Altitude | Speed | Heading |
|---|---|---|---|---|---|
| 2026-04-21 23:19 | 21.33044 | -157.91938 | 24 ft | 0 kts | 278° |
| 2026-04-21 23:40 | 21.33043 | -157.91929 | 24 ft | 2 kts | 275° |
| 2026-04-21 23:40 | 21.33042 | -157.91912 | 27 ft | 2 kts | 274° |
| 2026-04-21 23:41 | 21.33042 | -157.91894 | 26 ft | 2 kts | 257° |
| 2026-04-21 23:41 | 21.33049 | -157.91878 | 28 ft | 2 kts | 206° |
| 2026-04-21 23:41 | 21.33057 | -157.91875 | 29 ft | 0 kts | 188° |
| 2026-04-21 23:46 | 21.33056 | -157.91875 | 29 ft | 0 kts | 188° |
| 2026-04-21 23:46 | 21.33039 | -157.91878 | 29 ft | 4 kts | 188° |
| 2026-04-21 23:47 | 21.33008 | -157.91883 | 28 ft | 5 kts | 188° |
| 2026-04-21 23:47 | 21.32920 | -157.91898 | 25 ft | 22 kts | 189° |
| 2026-04-21 23:47 | 21.32782 | -157.91966 | 25 ft | 23 kts | 248° |
| 2026-04-21 23:47 | 21.32774 | -157.92140 | 24 ft | 23 kts | 270° |
| 2026-04-21 23:48 | 21.32775 | -157.92334 | 22 ft | 31 kts | 270° |
| 2026-04-21 23:48 | 21.32774 | -157.92594 | 24 ft | 37 kts | 269° |
| 2026-04-21 23:48 | 21.32743 | -157.92855 | 23 ft | 34 kts | 267° |
| 2026-04-21 23:48 | 21.32742 | -157.93101 | 25 ft | 32 kts | 270° |
| 2026-04-21 23:49 | 21.32743 | -157.93331 | 24 ft | 33 kts | 270° |
| 2026-04-21 23:49 | 21.32741 | -157.93635 | 26 ft | 45 kts | 271° |
| 2026-04-21 23:49 | 21.32741 | -157.93956 | 25 ft | 26 kts | 268° |
| 2026-04-21 23:49 | 21.32739 | -157.93973 | 25 ft | 0 kts | 259° |
| 2026-04-21 23:50 | 21.32727 | -157.94030 | 26 ft | 0 kts | 249° |
| 2026-04-21 23:50 | 21.32669 | -157.94099 | 27 ft | 29 kts | 216° |
| 2026-04-21 23:51 | 21.32465 | -157.94226 | 30 ft | 33 kts | 209° |
| 2026-04-21 23:51 | 21.32268 | -157.94343 | 28 ft | 32 kts | 209° |
| 2026-04-21 23:51 | 21.32054 | -157.94470 | 28 ft | 43 kts | 208° |
| 2026-04-21 23:51 | 21.31763 | -157.94639 | 28 ft | 49 kts | 201° |
| 2026-04-21 23:52 | 21.31426 | -157.94630 | 23 ft | 47 kts | 174° |
| 2026-04-21 23:52 | 21.31096 | -157.94588 | 23 ft | 50 kts | 173° |
| 2026-04-21 23:52 | 21.30802 | -157.94573 | 27 ft | 7 kts | 179° |
| 2026-04-21 23:52 | 21.30801 | -157.94573 | 23 ft | 0 kts | 179° |
| 2026-04-21 23:53 | 21.30774 | -157.94573 | 27 ft | 15 kts | 179° |
| 2026-04-21 23:54 | 21.30686 | -157.94525 | 28 ft | 16 kts | 117° |
| 2026-04-21 23:54 | 21.30681 | -157.94305 | 28 ft | 59 kts | 89° |
| 2026-04-21 23:54 | 21.30675 | -157.93452 | 26 ft | 169 kts | 93° |
| 2026-04-21 23:54 | 21.30705 | -157.91885 | 330 ft | 236 kts | 85° |
| 2026-04-21 23:55 | 21.30837 | -157.90117 | 1882 ft | 238 kts | 88° |
| 2026-04-21 23:55 | 21.30537 | -157.88343 | 3196 ft | 250 kts | 114° |
| 2026-04-21 23:55 | 21.29463 | -157.86857 | 4096 ft | 256 kts | 142° |
| 2026-04-21 23:55 | 21.27876 | -157.85989 | 4643 ft | 260 kts | 160° |
| 2026-04-21 23:56 | 21.26118 | -157.85390 | 5567 ft | 267 kts | 164° |
| 2026-04-21 23:56 | 21.24336 | -157.84818 | 6907 ft | 268 kts | 164° |
| 2026-04-21 23:56 | 21.22545 | -157.84242 | 7662 ft | 271 kts | 164° |
| 2026-04-21 23:56 | 21.20718 | -157.83659 | 8173 ft | 284 kts | 164° |
| 2026-04-21 23:57 | 21.18801 | -157.83048 | 8981 ft | 291 kts | 164° |
| 2026-04-21 23:57 | 21.16848 | -157.82426 | 9903 ft | 294 kts | 164° |
| 2026-04-21 23:57 | 21.14864 | -157.81794 | 10615 ft | 304 kts | 164° |
| 2026-04-21 23:57 | 21.12751 | -157.81119 | 10865 ft | 331 kts | 164° |
| 2026-04-21 23:58 | 21.10450 | -157.80386 | 11068 ft | 359 kts | 164° |
| 2026-04-21 23:58 | 21.07973 | -157.79598 | 11412 ft | 380 kts | 164° |
| 2026-04-21 23:58 | 21.05400 | -157.78778 | 12058 ft | 391 kts | 164° |
| 2026-04-21 23:58 | 21.02801 | -157.77821 | 12745 ft | 400 kts | 157° |
| 2026-04-21 23:59 | 21.00356 | -157.76356 | 13534 ft | 407 kts | 146° |
| 2026-04-21 23:59 | 20.98270 | -157.74360 | 14223 ft | 413 kts | 127° |
| 2026-04-21 23:59 | 20.96937 | -157.71630 | 14915 ft | 418 kts | 107° |
| 2026-04-21 23:59 | 20.96456 | -157.68570 | 15638 ft | 420 kts | 89° |
| 2026-04-22 00:00 | 20.96850 | -157.65475 | 16347 ft | 422 kts | 72° |
| 2026-04-22 00:00 | 20.98054 | -157.62626 | 17036 ft | 420 kts | 54° |
| 2026-04-22 00:00 | 20.99760 | -157.60071 | 17591 ft | 426 kts | 51° |
| 2026-04-22 00:00 | 21.01606 | -157.57543 | 18034 ft | 437 kts | 48° |
| 2026-04-22 00:01 | 21.03579 | -157.55017 | 18439 ft | 447 kts | 47° |
| 2026-04-22 00:01 | 21.05588 | -157.52438 | 18909 ft | 453 kts | 48° |
| 2026-04-22 00:01 | 21.07580 | -157.49802 | 19473 ft | 457 kts | 49° |
| 2026-04-22 00:01 | 21.09519 | -157.47153 | 20041 ft | 460 kts | 50° |
| 2026-04-22 00:02 | 21.11469 | -157.44418 | 20602 ft | 464 kts | 50° |
| 2026-04-22 00:02 | 21.13420 | -157.41637 | 21120 ft | 469 kts | 51° |
| 2026-04-22 00:02 | 21.15374 | -157.38822 | 21610 ft | 473 kts | 51° |
| 2026-04-22 00:02 | 21.17346 | -157.35971 | 22098 ft | 478 kts | 51° |
| 2026-04-22 00:03 | 21.19329 | -157.33099 | 22585 ft | 482 kts | 51° |
| 2026-04-22 00:03 | 21.21328 | -157.30204 | 23062 ft | 486 kts | 51° |
| 2026-04-22 00:03 | 21.23348 | -157.27281 | 23503 ft | 489 kts | 51° |
| 2026-04-22 00:03 | 21.25381 | -157.24342 | 23884 ft | 493 kts | 51° |
| 2026-04-22 00:04 | 21.27405 | -157.21415 | 24238 ft | 496 kts | 51° |
| 2026-04-22 00:04 | 21.29465 | -157.18435 | 24626 ft | 499 kts | 51° |
| 2026-04-22 00:04 | 21.31538 | -157.15435 | 24999 ft | 502 kts | 51° |
| 2026-04-22 00:04 | 21.33620 | -157.12421 | 25347 ft | 505 kts | 51° |
| 2026-04-22 00:05 | 21.35714 | -157.09389 | 25691 ft | 507 kts | 51° |
| 2026-04-22 00:05 | 21.37818 | -157.06339 | 25990 ft | 510 kts | 51° |
| 2026-04-22 00:05 | 21.39935 | -157.03270 | 26277 ft | 513 kts | 51° |
| 2026-04-22 00:05 | 21.42060 | -157.00186 | 26574 ft | 515 kts | 51° |
| 2026-04-22 00:06 | 21.44193 | -156.97090 | 26840 ft | 517 kts | 51° |
| 2026-04-22 00:06 | 21.46308 | -156.94018 | 27093 ft | 520 kts | 51° |
| 2026-04-22 00:06 | 21.48492 | -156.90843 | 27347 ft | 522 kts | 51° |
| 2026-04-22 00:06 | 21.50621 | -156.87747 | 27557 ft | 524 kts | 51° |
| 2026-04-22 00:07 | 21.52786 | -156.84597 | 27776 ft | 526 kts | 51° |
| 2026-04-22 00:07 | 21.54964 | -156.81426 | 27984 ft | 527 kts | 51° |
| 2026-04-22 00:07 | 21.57141 | -156.78255 | 28200 ft | 529 kts | 51° |
| 2026-04-22 00:07 | 21.59327 | -156.75067 | 28385 ft | 530 kts | 50° |
| 2026-04-22 00:08 | 21.61522 | -156.71868 | 28527 ft | 532 kts | 51° |
| 2026-04-22 00:08 | 21.63718 | -156.68663 | 28691 ft | 534 kts | 51° |
| 2026-04-22 00:08 | 21.65923 | -156.65443 | 28858 ft | 535 kts | 50° |
| 2026-04-22 00:08 | 21.68123 | -156.62228 | 29069 ft | 535 kts | 50° |
| 2026-04-22 00:09 | 21.70326 | -156.59007 | 29323 ft | 534 kts | 50° |
| 2026-04-22 00:09 | 21.72488 | -156.55842 | 29604 ft | 532 kts | 50° |
| 2026-04-22 00:09 | 21.74680 | -156.52634 | 29895 ft | 531 kts | 50° |
| 2026-04-22 00:09 | 21.76864 | -156.49436 | 30162 ft | 531 kts | 50° |
| 2026-04-22 00:10 | 21.79046 | -156.46238 | 30398 ft | 530 kts | 50° |
| 2026-04-22 00:10 | 21.81223 | -156.43047 | 30662 ft | 528 kts | 50° |
| 2026-04-22 00:10 | 21.83393 | -156.39863 | 30936 ft | 527 kts | 50° |
| 2026-04-22 00:10 | 21.85558 | -156.36684 | 31218 ft | 526 kts | 50° |
| 2026-04-22 00:11 | 21.87718 | -156.33513 | 31473 ft | 525 kts | 50° |
| 2026-04-22 00:11 | 21.89845 | -156.30387 | 31730 ft | 524 kts | 50° |
| 2026-04-22 00:11 | 21.91992 | -156.27231 | 32003 ft | 523 kts | 50° |
| 2026-04-22 00:11 | 21.94137 | -156.24074 | 32270 ft | 522 kts | 50° |
| 2026-04-22 00:12 | 21.96279 | -156.20921 | 32544 ft | 520 kts | 50° |
| 2026-04-22 00:12 | 21.98411 | -156.17780 | 32802 ft | 519 kts | 50° |
| 2026-04-22 00:12 | 22.00543 | -156.14638 | 33069 ft | 519 kts | 50° |
| 2026-04-22 00:12 | 22.02671 | -156.11500 | 33329 ft | 518 kts | 50° |
| 2026-04-22 00:13 | 22.04791 | -156.08373 | 33582 ft | 517 kts | 50° |
| 2026-04-22 00:13 | 22.06881 | -156.05288 | 33838 ft | 516 kts | 50° |
| 2026-04-22 00:13 | 22.08995 | -156.02164 | 34074 ft | 515 kts | 50° |
| 2026-04-22 00:13 | 22.11105 | -155.99046 | 34286 ft | 514 kts | 50° |
| 2026-04-22 00:14 | 22.13210 | -155.95933 | 34511 ft | 513 kts | 50° |
| 2026-04-22 00:14 | 22.15313 | -155.92820 | 34731 ft | 512 kts | 50° |
| 2026-04-22 00:14 | 22.17407 | -155.89720 | 34931 ft | 512 kts | 50° |
| 2026-04-22 00:15 | 22.21611 | -155.83491 | 35027 ft | 513 kts | 50° |
| 2026-04-22 00:15 | 22.25795 | -155.77282 | 35040 ft | 510 kts | 50° |
| 2026-04-22 00:16 | 22.29931 | -155.71139 | 35048 ft | 509 kts | 50° |
| 2026-04-22 00:16 | 22.34086 | -155.64960 | 35045 ft | 508 kts | 50° |
| 2026-04-22 00:17 | 22.38242 | -155.58774 | 35039 ft | 509 kts | 50° |
| 2026-04-22 00:17 | 22.42394 | -155.52586 | 35042 ft | 509 kts | 50° |
| 2026-04-22 00:18 | 22.46517 | -155.46433 | 35044 ft | 509 kts | 50° |
| 2026-04-22 00:18 | 22.50670 | -155.40228 | 35042 ft | 509 kts | 50° |
| 2026-04-22 00:19 | 22.54819 | -155.34023 | 35044 ft | 509 kts | 50° |
| 2026-04-22 00:19 | 22.58968 | -155.27809 | 35046 ft | 509 kts | 50° |
| 2026-04-22 00:20 | 22.63085 | -155.21636 | 35047 ft | 509 kts | 50° |
| 2026-04-22 00:20 | 22.67227 | -155.15418 | 35048 ft | 509 kts | 50° |
| 2026-04-22 00:21 | 22.71366 | -155.09198 | 35047 ft | 509 kts | 50° |
| 2026-04-22 00:21 | 22.75497 | -155.02982 | 35050 ft | 508 kts | 50° |
| 2026-04-22 00:22 | 22.79600 | -154.96802 | 35049 ft | 508 kts | 50° |
| 2026-04-22 00:22 | 22.83719 | -154.90589 | 35048 ft | 507 kts | 50° |
| 2026-04-22 00:23 | 22.87835 | -154.84373 | 35047 ft | 507 kts | 50° |
| 2026-04-22 00:23 | 22.91942 | -154.78163 | 35052 ft | 507 kts | 50° |
| 2026-04-22 00:24 | 22.96048 | -154.71947 | 35048 ft | 507 kts | 50° |
| 2026-04-22 00:24 | 23.00121 | -154.65775 | 35050 ft | 506 kts | 50° |
| 2026-04-22 00:25 | 23.02140 | -154.62640 | 35051 ft | 507 kts | 51° |
| 2026-04-22 00:25 | 23.04151 | -154.59376 | 35053 ft | 508 kts | 52° |
| 2026-04-22 00:26 | 23.08010 | -154.52961 | 35053 ft | 508 kts | 52° |
| 2026-04-22 00:26 | 23.11847 | -154.46591 | 35057 ft | 507 kts | 52° |
| 2026-04-22 00:27 | 23.15730 | -154.40191 | 35053 ft | 507 kts | 52° |
| 2026-04-22 00:27 | 23.19616 | -154.33802 | 35057 ft | 507 kts | 52° |
| 2026-04-22 00:28 | 23.23496 | -154.27415 | 35056 ft | 506 kts | 52° |
| 2026-04-22 00:28 | 23.27349 | -154.21062 | 35056 ft | 506 kts | 52° |
| 2026-04-22 00:29 | 23.31218 | -154.14673 | 35055 ft | 506 kts | 52° |
| 2026-04-22 00:29 | 23.35082 | -154.08283 | 35057 ft | 505 kts | 52° |
| 2026-04-22 00:30 | 23.38936 | -154.01903 | 35054 ft | 505 kts | 52° |
| 2026-04-22 00:30 | 23.42763 | -153.95559 | 35055 ft | 504 kts | 52° |
| 2026-04-22 00:31 | 23.46611 | -153.89174 | 35056 ft | 504 kts | 52° |
| 2026-04-22 00:31 | 23.50454 | -153.82787 | 35059 ft | 504 kts | 52° |
| 2026-04-22 00:32 | 23.54291 | -153.76403 | 35055 ft | 503 kts | 52° |
| 2026-04-22 00:32 | 23.58124 | -153.70018 | 35062 ft | 503 kts | 52° |
| 2026-04-22 00:33 | 23.61923 | -153.63681 | 35062 ft | 503 kts | 52° |
| 2026-04-22 00:33 | 23.65745 | -153.57297 | 35061 ft | 503 kts | 52° |
| 2026-04-22 00:34 | 23.69564 | -153.50909 | 35056 ft | 502 kts | 52° |
| 2026-04-22 00:34 | 23.73376 | -153.44526 | 35057 ft | 502 kts | 52° |
| 2026-04-22 00:35 | 23.77157 | -153.38185 | 35068 ft | 501 kts | 52° |
| 2026-04-22 00:35 | 23.80962 | -153.31815 | 35061 ft | 501 kts | 52° |
| 2026-04-22 00:36 | 23.84770 | -153.25458 | 35058 ft | 500 kts | 52° |
| 2026-04-22 00:36 | 23.88575 | -153.19099 | 35066 ft | 500 kts | 52° |
| 2026-04-22 00:37 | 23.92375 | -153.12734 | 35059 ft | 500 kts | 52° |
| 2026-04-22 00:37 | 23.96141 | -153.06417 | 35055 ft | 500 kts | 52° |
| 2026-04-22 00:38 | 23.99933 | -153.00047 | 35062 ft | 500 kts | 52° |
| 2026-04-22 00:38 | 24.03724 | -152.93671 | 35063 ft | 500 kts | 52° |
| 2026-04-22 00:39 | 24.07515 | -152.87287 | 35066 ft | 501 kts | 52° |
| 2026-04-22 00:39 | 24.11282 | -152.80935 | 35071 ft | 501 kts | 52° |
| 2026-04-22 00:40 | 24.15073 | -152.74534 | 35069 ft | 501 kts | 52° |
| 2026-04-22 00:40 | 24.18864 | -152.68125 | 35067 ft | 502 kts | 52° |
| 2026-04-22 00:41 | 24.22653 | -152.61709 | 35066 ft | 502 kts | 52° |
| 2026-04-22 00:41 | 24.26414 | -152.55334 | 35070 ft | 501 kts | 52° |
| 2026-04-22 00:42 | 24.30195 | -152.48916 | 35067 ft | 501 kts | 52° |
| 2026-04-22 00:42 | 24.33971 | -152.42499 | 35066 ft | 500 kts | 52° |
| 2026-04-22 00:43 | 24.37738 | -152.36088 | 35065 ft | 500 kts | 52° |
| 2026-04-22 00:43 | 24.41472 | -152.29726 | 35067 ft | 499 kts | 52° |
| 2026-04-22 00:44 | 24.45222 | -152.23328 | 35066 ft | 498 kts | 52° |
| 2026-04-22 00:44 | 24.48966 | -152.16932 | 35067 ft | 498 kts | 52° |
| 2026-04-22 00:45 | 24.52704 | -152.10537 | 35067 ft | 497 kts | 52° |
| 2026-04-22 00:45 | 24.56410 | -152.04190 | 35068 ft | 497 kts | 52° |
| 2026-04-22 00:46 | 24.60139 | -151.97794 | 35069 ft | 497 kts | 52° |
| 2026-04-22 00:46 | 24.63860 | -151.91403 | 35068 ft | 497 kts | 52° |
| 2026-04-22 00:47 | 24.67578 | -151.85009 | 35067 ft | 496 kts | 52° |
| 2026-04-22 00:47 | 24.71272 | -151.78648 | 35067 ft | 496 kts | 52° |
| 2026-04-22 00:48 | 24.74982 | -151.72252 | 35069 ft | 496 kts | 52° |
| 2026-04-22 00:48 | 24.78688 | -151.65853 | 35074 ft | 496 kts | 52° |
| 2026-04-22 00:49 | 24.82390 | -151.59453 | 35076 ft | 495 kts | 52° |
| 2026-04-22 00:49 | 24.86088 | -151.53051 | 35078 ft | 495 kts | 52° |
| 2026-04-22 00:50 | 24.89754 | -151.46696 | 35068 ft | 495 kts | 52° |
| 2026-04-22 00:50 | 24.93444 | -151.40292 | 35067 ft | 495 kts | 52° |
| 2026-04-22 00:51 | 24.97124 | -151.33895 | 35073 ft | 494 kts | 52° |
| 2026-04-22 00:51 | 25.00799 | -151.27498 | 35071 ft | 494 kts | 52° |
| 2026-04-22 00:52 | 25.04445 | -151.21144 | 35078 ft | 493 kts | 52° |
| 2026-04-22 00:52 | 25.08111 | -151.14747 | 35072 ft | 493 kts | 52° |
| 2026-04-22 00:53 | 25.11762 | -151.08368 | 35069 ft | 493 kts | 52° |
| 2026-04-22 00:53 | 25.15404 | -151.01995 | 35071 ft | 492 kts | 52° |
| 2026-04-22 00:54 | 25.19067 | -150.95577 | 35072 ft | 492 kts | 52° |
| 2026-04-22 00:54 | 25.22698 | -150.89205 | 35074 ft | 492 kts | 52° |
| 2026-04-22 00:55 | 25.26317 | -150.82847 | 35077 ft | 492 kts | 52° |
| 2026-04-22 00:55 | 25.31780 | -150.73234 | 35076 ft | 491 kts | 52° |
| 2026-04-22 00:56 | 25.35406 | -150.66841 | 35078 ft | 491 kts | 52° |
| 2026-04-22 00:56 | 25.39020 | -150.60462 | 35077 ft | 491 kts | 52° |
| 2026-04-22 00:57 | 25.42623 | -150.54092 | 35076 ft | 491 kts | 52° |
| 2026-04-22 00:57 | 25.46229 | -150.47709 | 35080 ft | 490 kts | 52° |
| 2026-04-22 00:58 | 25.49848 | -150.41295 | 35077 ft | 490 kts | 52° |
| 2026-04-22 00:58 | 25.53451 | -150.34900 | 35077 ft | 490 kts | 52° |
| 2026-04-22 00:59 | 25.57047 | -150.28509 | 35081 ft | 490 kts | 52° |
| 2026-04-22 00:59 | 25.60631 | -150.22129 | 35081 ft | 490 kts | 52° |
| 2026-04-22 01:00 | 25.64227 | -150.15720 | 35078 ft | 490 kts | 52° |
| 2026-04-22 01:00 | 25.67801 | -150.09342 | 35079 ft | 489 kts | 52° |
| 2026-04-22 01:01 | 25.71403 | -150.02904 | 35079 ft | 489 kts | 52° |
| 2026-04-22 01:01 | 25.74962 | -149.96535 | 35080 ft | 489 kts | 52° |
| 2026-04-22 01:02 | 25.78543 | -149.90118 | 35080 ft | 489 kts | 52° |
| 2026-04-22 01:02 | 25.82118 | -149.83702 | 35083 ft | 489 kts | 52° |
| 2026-04-22 01:03 | 25.85694 | -149.77275 | 35085 ft | 489 kts | 52° |
| 2026-04-22 01:03 | 25.89267 | -149.70844 | 35085 ft | 489 kts | 52° |
| 2026-04-22 01:04 | 25.92811 | -149.64457 | 35082 ft | 489 kts | 52° |
| 2026-04-22 01:04 | 25.96372 | -149.58031 | 35086 ft | 488 kts | 52° |
| 2026-04-22 01:05 | 25.99926 | -149.51608 | 35086 ft | 488 kts | 52° |
| 2026-04-22 01:05 | 26.03478 | -149.45180 | 35088 ft | 488 kts | 52° |
| 2026-04-22 01:06 | 26.07003 | -149.38792 | 35086 ft | 488 kts | 52° |
| 2026-04-22 01:06 | 26.10555 | -149.32347 | 35085 ft | 488 kts | 52° |
| 2026-04-22 01:07 | 26.14102 | -149.25900 | 35085 ft | 489 kts | 52° |
| 2026-04-22 01:07 | 26.17651 | -149.19442 | 35090 ft | 489 kts | 52° |
| 2026-04-22 01:08 | 26.21176 | -149.13017 | 35090 ft | 490 kts | 52° |
| 2026-04-22 01:08 | 26.24727 | -149.06536 | 35092 ft | 490 kts | 52° |
| 2026-04-22 01:09 | 26.28279 | -149.00044 | 35095 ft | 491 kts | 52° |
| 2026-04-22 01:09 | 26.31828 | -148.93547 | 35088 ft | 491 kts | 52° |
| 2026-04-22 01:10 | 26.35351 | -148.87089 | 35093 ft | 491 kts | 53° |
| 2026-04-22 01:10 | 26.38902 | -148.80572 | 35087 ft | 492 kts | 53° |
| 2026-04-22 01:11 | 26.42449 | -148.74052 | 35097 ft | 492 kts | 53° |
| 2026-04-22 01:11 | 26.45998 | -148.67518 | 35094 ft | 492 kts | 53° |
| 2026-04-22 01:12 | 26.49522 | -148.61021 | 35101 ft | 492 kts | 53° |
| 2026-04-22 01:12 | 26.53065 | -148.54477 | 35092 ft | 493 kts | 53° |
| 2026-04-22 01:13 | 26.56609 | -148.47926 | 35107 ft | 493 kts | 53° |
| 2026-04-22 01:13 | 26.60128 | -148.41410 | 35094 ft | 493 kts | 53° |
| 2026-04-22 01:14 | 26.63663 | -148.34853 | 35103 ft | 493 kts | 53° |
| 2026-04-22 01:14 | 26.67202 | -148.28280 | 35107 ft | 493 kts | 53° |
| 2026-04-22 01:15 | 26.70738 | -148.21703 | 35110 ft | 494 kts | 53° |
| 2026-04-22 01:15 | 26.74274 | -148.15119 | 35112 ft | 494 kts | 53° |
| 2026-04-22 01:16 | 26.77790 | -148.08560 | 35112 ft | 495 kts | 53° |
| 2026-04-22 01:16 | 26.81324 | -148.01957 | 35102 ft | 495 kts | 53° |
| 2026-04-22 01:17 | 26.84859 | -147.95342 | 35116 ft | 495 kts | 53° |
| 2026-04-22 01:17 | 26.88391 | -147.88724 | 35108 ft | 495 kts | 53° |
| 2026-04-22 01:18 | 26.91896 | -147.82145 | 35123 ft | 495 kts | 53° |
| 2026-04-22 01:18 | 26.95425 | -147.75514 | 35119 ft | 495 kts | 53° |
| 2026-04-22 01:19 | 26.98951 | -147.68878 | 35114 ft | 496 kts | 53° |
| 2026-04-22 01:19 | 27.02478 | -147.62227 | 35117 ft | 496 kts | 53° |
| 2026-04-22 01:20 | 27.05972 | -147.55630 | 35116 ft | 496 kts | 53° |
| 2026-04-22 01:20 | 27.09492 | -147.48975 | 35120 ft | 496 kts | 53° |
| 2026-04-22 01:21 | 27.13010 | -147.42312 | 35120 ft | 496 kts | 54° |
| 2026-04-22 01:21 | 27.16510 | -147.35673 | 35122 ft | 497 kts | 54° |
| 2026-04-22 01:22 | 27.19454 | -147.30080 | 35110 ft | 497 kts | 54° |
| 2026-04-22 01:22 | 27.23519 | -147.22329 | 35125 ft | 497 kts | 55° |
| 2026-04-22 01:23 | 27.26645 | -147.15387 | 35132 ft | 500 kts | 59° |
| 2026-04-22 01:23 | 27.29650 | -147.08323 | 35130 ft | 500 kts | 59° |
| 2026-04-22 01:24 | 27.32141 | -147.02463 | 35129 ft | 500 kts | 59° |
| 2026-04-22 01:24 | 27.35153 | -146.95424 | 35128 ft | 500 kts | 59° |
| 2026-04-22 01:25 | 27.38178 | -146.88374 | 35132 ft | 500 kts | 59° |
| 2026-04-22 01:25 | 27.41193 | -146.81341 | 35132 ft | 500 kts | 59° |
| 2026-04-22 01:26 | 27.44210 | -146.74292 | 35135 ft | 499 kts | 59° |
| 2026-04-22 01:26 | 27.47211 | -146.67262 | 35131 ft | 499 kts | 59° |
| 2026-04-22 01:27 | 27.50203 | -146.60242 | 35135 ft | 499 kts | 59° |
| 2026-04-22 01:27 | 27.53194 | -146.53212 | 35133 ft | 498 kts | 59° |
| 2026-04-22 01:28 | 27.56177 | -146.46191 | 35139 ft | 498 kts | 59° |
| 2026-04-22 01:28 | 27.59169 | -146.39134 | 35138 ft | 498 kts | 59° |
| 2026-04-22 01:29 | 27.62161 | -146.32066 | 35139 ft | 499 kts | 59° |
| 2026-04-22 01:29 | 27.65124 | -146.25055 | 35141 ft | 499 kts | 59° |
| 2026-04-22 01:30 | 27.68102 | -146.17995 | 35144 ft | 499 kts | 59° |
| 2026-04-22 01:30 | 27.71079 | -146.10924 | 35143 ft | 499 kts | 59° |
| 2026-04-22 01:31 | 27.74055 | -146.03845 | 35139 ft | 499 kts | 59° |
| 2026-04-22 01:31 | 27.77016 | -145.96787 | 35146 ft | 499 kts | 59° |
| 2026-04-22 01:32 | 27.79984 | -145.89700 | 35146 ft | 499 kts | 59° |
| 2026-04-22 01:32 | 27.82950 | -145.82608 | 35154 ft | 499 kts | 59° |
| 2026-04-22 01:33 | 27.85904 | -145.75532 | 35153 ft | 499 kts | 59° |
| 2026-04-22 01:33 | 27.88845 | -145.68472 | 35140 ft | 499 kts | 59° |
| 2026-04-22 01:34 | 27.91795 | -145.61378 | 35147 ft | 499 kts | 59° |
| 2026-04-22 01:34 | 27.94756 | -145.54246 | 35163 ft | 499 kts | 59° |
| 2026-04-22 01:35 | 27.97680 | -145.47192 | 35153 ft | 499 kts | 59° |
| 2026-04-22 01:35 | 28.00622 | -145.40080 | 35152 ft | 499 kts | 59° |
| 2026-04-22 01:36 | 28.03552 | -145.32985 | 35158 ft | 499 kts | 60° |
| 2026-04-22 01:36 | 28.06478 | -145.25887 | 35155 ft | 499 kts | 60° |
| 2026-04-22 01:37 | 28.09404 | -145.18777 | 35155 ft | 499 kts | 60° |
| 2026-04-22 01:37 | 28.12336 | -145.11637 | 35163 ft | 499 kts | 60° |
| 2026-04-22 01:38 | 28.15250 | -145.04531 | 35159 ft | 499 kts | 60° |
| 2026-04-22 01:38 | 28.18169 | -144.97399 | 35161 ft | 499 kts | 60° |
| 2026-04-22 01:39 | 28.21090 | -144.90248 | 35164 ft | 500 kts | 60° |
| 2026-04-22 01:39 | 28.24003 | -144.83105 | 35166 ft | 500 kts | 60° |
| 2026-04-22 01:40 | 28.26918 | -144.75943 | 35164 ft | 501 kts | 60° |
| 2026-04-22 01:40 | 28.29826 | -144.68786 | 35166 ft | 501 kts | 60° |
| 2026-04-22 01:41 | 28.32727 | -144.61633 | 35169 ft | 502 kts | 60° |
| 2026-04-22 01:41 | 28.35652 | -144.54406 | 35167 ft | 503 kts | 61° |
| 2026-04-22 01:42 | 28.38550 | -144.47233 | 35170 ft | 503 kts | 61° |
| 2026-04-22 01:42 | 28.41468 | -144.40000 | 35170 ft | 504 kts | 61° |
| 2026-04-22 01:43 | 28.44388 | -144.32744 | 35169 ft | 504 kts | 61° |
| 2026-04-22 01:43 | 28.47292 | -144.25517 | 35170 ft | 504 kts | 61° |
| 2026-04-22 01:44 | 28.50187 | -144.18300 | 35171 ft | 505 kts | 61° |
| 2026-04-22 01:44 | 28.53106 | -144.11007 | 35173 ft | 506 kts | 61° |
| 2026-04-22 01:45 | 28.56010 | -144.03739 | 35171 ft | 506 kts | 62° |
| 2026-04-22 01:45 | 28.58913 | -143.96460 | 35174 ft | 507 kts | 62° |
| 2026-04-22 01:46 | 28.61827 | -143.89139 | 35176 ft | 508 kts | 62° |
| 2026-04-22 01:46 | 28.64731 | -143.81829 | 35176 ft | 509 kts | 62° |
| 2026-04-22 01:47 | 28.67631 | -143.74515 | 35177 ft | 510 kts | 62° |
| 2026-04-22 01:47 | 28.70536 | -143.67177 | 35178 ft | 511 kts | 62° |
| 2026-04-22 01:48 | 28.73467 | -143.59756 | 35179 ft | 511 kts | 63° |
| 2026-04-22 01:48 | 28.76363 | -143.52409 | 35179 ft | 513 kts | 63° |
| 2026-04-22 01:49 | 28.79279 | -143.44997 | 35177 ft | 514 kts | 63° |
| 2026-04-22 01:49 | 28.82208 | -143.37539 | 35179 ft | 515 kts | 63° |
| 2026-04-22 01:50 | 28.85122 | -143.30104 | 35179 ft | 516 kts | 63° |
| 2026-04-22 01:50 | 28.88049 | -143.22623 | 35178 ft | 518 kts | 64° |
| 2026-04-22 01:51 | 28.90982 | -143.15109 | 35181 ft | 520 kts | 64° |
| 2026-04-22 01:51 | 28.93915 | -143.07582 | 35181 ft | 521 kts | 64° |
| 2026-04-22 01:52 | 28.96862 | -143.00003 | 35185 ft | 523 kts | 64° |
| 2026-04-22 01:52 | 28.99807 | -142.92414 | 35184 ft | 524 kts | 64° |
| 2026-04-22 01:53 | 29.02754 | -142.84805 | 35180 ft | 525 kts | 64° |
| 2026-04-22 01:53 | 29.05691 | -142.77206 | 35187 ft | 526 kts | 64° |
| 2026-04-22 01:54 | 29.08652 | -142.69527 | 35186 ft | 527 kts | 64° |
| 2026-04-22 01:54 | 29.11589 | -142.61898 | 35187 ft | 527 kts | 65° |
| 2026-04-22 01:55 | 29.14532 | -142.54236 | 35186 ft | 528 kts | 65° |
| 2026-04-22 01:55 | 29.17484 | -142.46536 | 35187 ft | 529 kts | 65° |
| 2026-04-22 01:56 | 29.20431 | -142.38833 | 35187 ft | 529 kts | 65° |
| 2026-04-22 01:56 | 29.23388 | -142.31087 | 35186 ft | 530 kts | 65° |
| 2026-04-22 01:57 | 29.26320 | -142.23390 | 35190 ft | 530 kts | 65° |
| 2026-04-22 01:57 | 29.29256 | -142.15667 | 35189 ft | 530 kts | 65° |
| 2026-04-22 01:58 | 29.32186 | -142.07943 | 35190 ft | 530 kts | 65° |
| 2026-04-22 01:58 | 29.35124 | -142.00182 | 35190 ft | 530 kts | 65° |
| 2026-04-22 01:59 | 29.38054 | -141.92426 | 35191 ft | 530 kts | 65° |
| 2026-04-22 01:59 | 29.40973 | -141.84683 | 35191 ft | 530 kts | 66° |
| 2026-04-22 02:00 | 29.43875 | -141.76971 | 35191 ft | 530 kts | 66° |
| 2026-04-22 02:00 | 29.46795 | -141.69191 | 35195 ft | 530 kts | 66° |
| 2026-04-22 02:01 | 29.49696 | -141.61446 | 35193 ft | 530 kts | 66° |
| 2026-04-22 02:01 | 29.52599 | -141.53681 | 35193 ft | 530 kts | 66° |
| 2026-04-22 02:02 | 29.55496 | -141.45914 | 35196 ft | 530 kts | 66° |
| 2026-04-22 02:02 | 29.58404 | -141.38102 | 35193 ft | 531 kts | 66° |
| 2026-04-22 02:03 | 29.61282 | -141.30353 | 35198 ft | 531 kts | 66° |
| 2026-04-22 02:03 | 29.64172 | -141.22557 | 35198 ft | 531 kts | 66° |
| 2026-04-22 02:04 | 29.68502 | -141.10841 | 35199 ft | 532 kts | 66° |
| 2026-04-22 02:05 | 29.71386 | -141.03017 | 35206 ft | 532 kts | 66° |
| 2026-04-22 02:05 | 29.74264 | -140.95192 | 35200 ft | 533 kts | 66° |
| 2026-04-22 02:06 | 29.77147 | -140.87337 | 35195 ft | 533 kts | 66° |
| 2026-04-22 02:06 | 29.80029 | -140.79468 | 35198 ft | 533 kts | 66° |
| 2026-04-22 02:07 | 29.82902 | -140.71605 | 35199 ft | 533 kts | 66° |
| 2026-04-22 02:07 | 29.85756 | -140.63778 | 35199 ft | 533 kts | 66° |
| 2026-04-22 02:08 | 29.88631 | -140.55874 | 35197 ft | 533 kts | 66° |
| 2026-04-22 02:08 | 29.91480 | -140.48024 | 35200 ft | 533 kts | 67° |
| 2026-04-22 02:09 | 29.94343 | -140.40120 | 35196 ft | 533 kts | 67° |
| 2026-04-22 02:09 | 29.97093 | -140.32231 | 35203 ft | 534 kts | 69° |
| 2026-04-22 02:10 | 29.99696 | -140.24214 | 35199 ft | 534 kts | 69° |
| 2026-04-22 02:10 | 30.02284 | -140.16175 | 35201 ft | 534 kts | 69° |
| 2026-04-22 02:11 | 30.04894 | -140.08140 | 35203 ft | 535 kts | 69° |
| 2026-04-22 02:11 | 30.07498 | -140.00164 | 35204 ft | 535 kts | 69° |
| 2026-04-22 02:12 | 30.10117 | -139.92130 | 35204 ft | 535 kts | 69° |
| 2026-04-22 02:12 | 30.12741 | -139.84055 | 35206 ft | 535 kts | 69° |
| 2026-04-22 02:13 | 30.15332 | -139.76056 | 35206 ft | 536 kts | 69° |
| 2026-04-22 02:13 | 30.17950 | -139.67955 | 35203 ft | 536 kts | 69° |
| 2026-04-22 02:14 | 30.20544 | -139.59910 | 35201 ft | 536 kts | 69° |
| 2026-04-22 02:14 | 30.23132 | -139.51861 | 35203 ft | 536 kts | 69° |
| 2026-04-22 02:15 | 30.25722 | -139.43788 | 35206 ft | 536 kts | 69° |
| 2026-04-22 02:15 | 30.28314 | -139.35690 | 35204 ft | 536 kts | 70° |
| 2026-04-22 02:16 | 30.30877 | -139.27662 | 35205 ft | 536 kts | 70° |
| 2026-04-22 02:16 | 30.33467 | -139.19529 | 35204 ft | 536 kts | 70° |
| 2026-04-22 02:17 | 30.36026 | -139.11475 | 35209 ft | 536 kts | 70° |
| 2026-04-22 02:17 | 30.38603 | -139.03343 | 35207 ft | 536 kts | 70° |
| 2026-04-22 02:18 | 30.41162 | -138.95251 | 35205 ft | 536 kts | 70° |
| 2026-04-22 02:18 | 30.43713 | -138.87161 | 35206 ft | 537 kts | 70° |
| 2026-04-22 02:19 | 30.46267 | -138.79043 | 35207 ft | 537 kts | 70° |
| 2026-04-22 02:19 | 30.48814 | -138.70925 | 35209 ft | 537 kts | 70° |
| 2026-04-22 02:20 | 30.51352 | -138.62817 | 35204 ft | 537 kts | 70° |
| 2026-04-22 02:20 | 30.53894 | -138.54674 | 35205 ft | 537 kts | 70° |
| 2026-04-22 02:21 | 30.56426 | -138.46543 | 35208 ft | 537 kts | 70° |
| 2026-04-22 02:21 | 30.58969 | -138.38358 | 35208 ft | 538 kts | 70° |
| 2026-04-22 02:22 | 30.61499 | -138.30195 | 35208 ft | 538 kts | 70° |
| 2026-04-22 02:22 | 30.64021 | -138.22033 | 35210 ft | 538 kts | 70° |
| 2026-04-22 02:23 | 30.66528 | -138.13902 | 35210 ft | 538 kts | 70° |
| 2026-04-22 02:23 | 30.69037 | -138.05743 | 35209 ft | 538 kts | 70° |
| 2026-04-22 02:24 | 30.71560 | -137.97517 | 35209 ft | 538 kts | 70° |
| 2026-04-22 02:24 | 30.74064 | -137.89334 | 35210 ft | 539 kts | 71° |
| 2026-04-22 02:25 | 30.76559 | -137.81155 | 35205 ft | 539 kts | 71° |
| 2026-04-22 02:25 | 30.79050 | -137.72974 | 35206 ft | 539 kts | 71° |
| 2026-04-22 02:26 | 30.81554 | -137.64724 | 35210 ft | 539 kts | 71° |
| 2026-04-22 02:26 | 30.84036 | -137.56527 | 35209 ft | 539 kts | 71° |
| 2026-04-22 02:27 | 30.86521 | -137.48299 | 35210 ft | 539 kts | 71° |
| 2026-04-22 02:27 | 30.89000 | -137.40067 | 35209 ft | 540 kts | 71° |
| 2026-04-22 02:28 | 30.91460 | -137.31881 | 35206 ft | 540 kts | 71° |
| 2026-04-22 02:28 | 30.93938 | -137.23609 | 35210 ft | 540 kts | 71° |
| 2026-04-22 02:29 | 30.96396 | -137.15386 | 35210 ft | 540 kts | 71° |
| 2026-04-22 02:29 | 30.98854 | -137.07137 | 35210 ft | 540 kts | 71° |
| 2026-04-22 02:30 | 31.01310 | -136.98878 | 35210 ft | 541 kts | 71° |
| 2026-04-22 02:30 | 31.03778 | -136.90552 | 35209 ft | 541 kts | 71° |
| 2026-04-22 02:31 | 31.06211 | -136.82324 | 35207 ft | 541 kts | 71° |
| 2026-04-22 02:31 | 31.08663 | -136.74010 | 35207 ft | 541 kts | 71° |
| 2026-04-22 02:32 | 31.11096 | -136.65736 | 35210 ft | 541 kts | 71° |
| 2026-04-22 02:32 | 31.13526 | -136.57454 | 35211 ft | 541 kts | 71° |
| 2026-04-22 02:33 | 31.15960 | -136.49133 | 35213 ft | 542 kts | 71° |
| 2026-04-22 02:33 | 31.18378 | -136.40843 | 35208 ft | 542 kts | 71° |
| 2026-04-22 02:34 | 31.20818 | -136.32458 | 35207 ft | 542 kts | 72° |
| 2026-04-22 02:34 | 31.23215 | -136.24195 | 35210 ft | 542 kts | 72° |
| 2026-04-22 02:35 | 31.25635 | -136.15831 | 35208 ft | 542 kts | 72° |
| 2026-04-22 02:35 | 31.28037 | -136.07510 | 35213 ft | 542 kts | 72° |
| 2026-04-22 02:36 | 31.30450 | -135.99122 | 35208 ft | 542 kts | 72° |
| 2026-04-22 02:36 | 31.32834 | -135.90817 | 35209 ft | 542 kts | 72° |
| 2026-04-22 02:37 | 31.35233 | -135.82433 | 35214 ft | 543 kts | 72° |
| 2026-04-22 02:37 | 31.37611 | -135.74101 | 35210 ft | 543 kts | 72° |
| 2026-04-22 02:38 | 31.39990 | -135.65743 | 35212 ft | 543 kts | 72° |
| 2026-04-22 02:38 | 31.42378 | -135.57327 | 35211 ft | 543 kts | 72° |
| 2026-04-22 02:39 | 31.44757 | -135.48920 | 35213 ft | 543 kts | 72° |
| 2026-04-22 02:39 | 31.47114 | -135.40570 | 35215 ft | 543 kts | 72° |
| 2026-04-22 02:40 | 31.49476 | -135.32175 | 35211 ft | 544 kts | 72° |
| 2026-04-22 02:40 | 31.51842 | -135.23747 | 35214 ft | 544 kts | 72° |
| 2026-04-22 02:41 | 31.54183 | -135.15380 | 35216 ft | 544 kts | 72° |
| 2026-04-22 02:41 | 31.56537 | -135.06943 | 35217 ft | 544 kts | 72° |
| 2026-04-22 02:42 | 31.58880 | -134.98523 | 35213 ft | 544 kts | 72° |
| 2026-04-22 02:42 | 31.61209 | -134.90129 | 35214 ft | 544 kts | 73° |
| 2026-04-22 02:43 | 31.63558 | -134.81638 | 35215 ft | 544 kts | 73° |
| 2026-04-22 02:43 | 31.65886 | -134.73197 | 35219 ft | 545 kts | 73° |
| 2026-04-22 02:44 | 31.68207 | -134.64759 | 35220 ft | 545 kts | 73° |
| 2026-04-22 02:44 | 31.70525 | -134.56308 | 35217 ft | 545 kts | 73° |
| 2026-04-22 02:45 | 31.72839 | -134.47845 | 35217 ft | 545 kts | 73° |
| 2026-04-22 02:45 | 31.75146 | -134.39383 | 35218 ft | 546 kts | 73° |
| 2026-04-22 02:46 | 31.77459 | -134.30876 | 35220 ft | 546 kts | 73° |
| 2026-04-22 02:46 | 31.79751 | -134.22421 | 35219 ft | 546 kts | 73° |
| 2026-04-22 02:47 | 31.82048 | -134.13920 | 35221 ft | 547 kts | 73° |
| 2026-04-22 02:47 | 31.84346 | -134.05393 | 35222 ft | 547 kts | 73° |
| 2026-04-22 02:48 | 31.86639 | -133.96857 | 35215 ft | 548 kts | 73° |
| 2026-04-22 02:48 | 31.88911 | -133.88377 | 35218 ft | 548 kts | 73° |
| 2026-04-22 02:49 | 31.91197 | -133.79815 | 35219 ft | 548 kts | 73° |
| 2026-04-22 02:49 | 31.93480 | -133.71242 | 35219 ft | 549 kts | 73° |
| 2026-04-22 02:50 | 31.95759 | -133.62658 | 35220 ft | 549 kts | 73° |
| 2026-04-22 02:50 | 31.98015 | -133.54132 | 35219 ft | 550 kts | 73° |
| 2026-04-22 02:51 | 32.00286 | -133.45526 | 35215 ft | 550 kts | 73° |
| 2026-04-22 02:51 | 32.02554 | -133.36905 | 35218 ft | 551 kts | 73° |
| 2026-04-22 02:52 | 32.04816 | -133.28278 | 35217 ft | 552 kts | 73° |
| 2026-04-22 02:52 | 32.07062 | -133.19686 | 35222 ft | 552 kts | 73° |
| 2026-04-22 02:53 | 32.09320 | -133.11023 | 35219 ft | 553 kts | 73° |
| 2026-04-22 02:53 | 32.11573 | -133.02352 | 35205 ft | 553 kts | 73° |
| 2026-04-22 02:54 | 32.13823 | -132.93662 | 35210 ft | 554 kts | 72° |
| 2026-04-22 02:54 | 32.16086 | -132.85041 | 35205 ft | 554 kts | 70° |
| 2026-04-22 02:55 | 32.19178 | -132.76737 | 35225 ft | 553 kts | 61° |
| 2026-04-22 02:55 | 32.22804 | -132.68726 | 35207 ft | 553 kts | 60° |
| 2026-04-22 02:56 | 32.26434 | -132.60709 | 35207 ft | 554 kts | 60° |
| 2026-04-22 02:56 | 32.29994 | -132.52710 | 35221 ft | 554 kts | 61° |
| 2026-04-22 02:57 | 32.33556 | -132.44620 | 35208 ft | 555 kts | 61° |
| 2026-04-22 02:57 | 32.37110 | -132.36524 | 35208 ft | 555 kts | 60° |
| 2026-04-22 02:58 | 32.40665 | -132.28418 | 35209 ft | 555 kts | 60° |
| 2026-04-22 02:58 | 32.44195 | -132.20358 | 35209 ft | 556 kts | 60° |
| 2026-04-22 02:59 | 32.47749 | -132.12224 | 35213 ft | 556 kts | 60° |
| 2026-04-22 02:59 | 32.51300 | -132.04079 | 35215 ft | 556 kts | 60° |
| 2026-04-22 03:00 | 32.54845 | -131.95929 | 35212 ft | 557 kts | 60° |
| 2026-04-22 03:00 | 32.58363 | -131.87823 | 35212 ft | 557 kts | 60° |
| 2026-04-22 03:01 | 32.61906 | -131.79639 | 35216 ft | 557 kts | 60° |
| 2026-04-22 03:01 | 32.65441 | -131.71455 | 35213 ft | 558 kts | 60° |
| 2026-04-22 03:02 | 32.68977 | -131.63250 | 35210 ft | 558 kts | 60° |
| 2026-04-22 03:02 | 32.72484 | -131.55094 | 35209 ft | 559 kts | 60° |
| 2026-04-22 03:03 | 32.76017 | -131.46860 | 35211 ft | 559 kts | 60° |
| 2026-04-22 03:03 | 32.79544 | -131.38618 | 35209 ft | 560 kts | 60° |
| 2026-04-22 03:04 | 32.83068 | -131.30367 | 35208 ft | 560 kts | 60° |
| 2026-04-22 03:04 | 32.86567 | -131.22153 | 35214 ft | 561 kts | 60° |
| 2026-04-22 03:05 | 32.90087 | -131.13872 | 35217 ft | 561 kts | 60° |
| 2026-04-22 03:05 | 32.93607 | -131.05571 | 35214 ft | 562 kts | 60° |
| 2026-04-22 03:06 | 32.97126 | -130.97252 | 35204 ft | 562 kts | 60° |
| 2026-04-22 03:06 | 33.00613 | -130.88990 | 35210 ft | 562 kts | 60° |
| 2026-04-22 03:07 | 33.04122 | -130.80657 | 35214 ft | 563 kts | 60° |
| 2026-04-22 03:07 | 33.07624 | -130.72318 | 35204 ft | 563 kts | 60° |
| 2026-04-22 03:08 | 33.11124 | -130.63966 | 35205 ft | 563 kts | 60° |
| 2026-04-22 03:08 | 33.14596 | -130.55661 | 35215 ft | 563 kts | 60° |
| 2026-04-22 03:09 | 33.18085 | -130.47296 | 35200 ft | 563 kts | 60° |
| 2026-04-22 03:09 | 33.21573 | -130.38913 | 35206 ft | 564 kts | 60° |
| 2026-04-22 03:10 | 33.25053 | -130.30529 | 35198 ft | 564 kts | 60° |
| 2026-04-22 03:10 | 33.28512 | -130.22175 | 35207 ft | 564 kts | 60° |
| 2026-04-22 03:11 | 33.31987 | -130.13763 | 35203 ft | 565 kts | 60° |
| 2026-04-22 03:11 | 33.35464 | -130.05323 | 35200 ft | 566 kts | 60° |
| 2026-04-22 03:12 | 33.38935 | -129.96877 | 35202 ft | 566 kts | 60° |
| 2026-04-22 03:12 | 33.44114 | -129.84239 | 35201 ft | 567 kts | 60° |
| 2026-04-22 03:13 | 33.47582 | -129.75752 | 35199 ft | 567 kts | 60° |
| 2026-04-22 03:13 | 33.51039 | -129.67268 | 35197 ft | 567 kts | 60° |
| 2026-04-22 03:14 | 33.54498 | -129.58759 | 35193 ft | 568 kts | 60° |
| 2026-04-22 03:14 | 33.57926 | -129.50307 | 35192 ft | 568 kts | 60° |
| 2026-04-22 03:15 | 33.61377 | -129.41774 | 35194 ft | 568 kts | 60° |
| 2026-04-22 03:15 | 33.64824 | -129.33233 | 35193 ft | 569 kts | 60° |
| 2026-04-22 03:16 | 33.68266 | -129.24680 | 35192 ft | 569 kts | 60° |
| 2026-04-22 03:16 | 33.71685 | -129.16162 | 35189 ft | 570 kts | 60° |
| 2026-04-22 03:17 | 33.75121 | -129.07581 | 35196 ft | 570 kts | 60° |
| 2026-04-22 03:17 | 33.78554 | -128.98987 | 35188 ft | 570 kts | 60° |
| 2026-04-22 03:18 | 33.81980 | -128.90387 | 35190 ft | 571 kts | 60° |
| 2026-04-22 03:18 | 33.85110 | -128.81678 | 35185 ft | 575 kts | 69° |
| 2026-04-22 03:19 | 33.86882 | -128.72259 | 35191 ft | 580 kts | 81° |
| 2026-04-22 03:19 | 33.87305 | -128.62548 | 35197 ft | 582 kts | 88° |
| 2026-04-22 03:20 | 33.87453 | -128.52816 | 35188 ft | 582 kts | 88° |
| 2026-04-22 03:20 | 33.87638 | -128.43129 | 35180 ft | 583 kts | 88° |
| 2026-04-22 03:21 | 33.87877 | -128.33378 | 35184 ft | 583 kts | 87° |
| 2026-04-22 03:21 | 33.88128 | -128.23622 | 35183 ft | 584 kts | 87° |
| 2026-04-22 03:22 | 33.88367 | -128.13862 | 35183 ft | 584 kts | 87° |
| 2026-04-22 03:22 | 33.88592 | -128.04121 | 35180 ft | 584 kts | 87° |
| 2026-04-22 03:23 | 33.88806 | -127.94381 | 35181 ft | 584 kts | 87° |
| 2026-04-22 03:23 | 33.89014 | -127.84631 | 35180 ft | 584 kts | 87° |
| 2026-04-22 03:24 | 33.89217 | -127.74815 | 35182 ft | 585 kts | 87° |
| 2026-04-22 03:24 | 33.89409 | -127.65103 | 35179 ft | 585 kts | 88° |
| 2026-04-22 03:25 | 33.89596 | -127.55308 | 35178 ft | 586 kts | 88° |
| 2026-04-22 03:25 | 33.89775 | -127.45467 | 35179 ft | 586 kts | 88° |
| 2026-04-22 03:26 | 33.89946 | -127.35705 | 35179 ft | 586 kts | 88° |
| 2026-04-22 03:26 | 33.90109 | -127.25894 | 35176 ft | 586 kts | 88° |
| 2026-04-22 03:27 | 33.90265 | -127.16055 | 35180 ft | 587 kts | 88° |
| 2026-04-22 03:27 | 33.90412 | -127.06302 | 35178 ft | 587 kts | 88° |
| 2026-04-22 03:28 | 33.90552 | -126.96482 | 35177 ft | 587 kts | 88° |
| 2026-04-22 03:28 | 33.90685 | -126.86643 | 35174 ft | 588 kts | 88° |
| 2026-04-22 03:29 | 33.90809 | -126.76829 | 35177 ft | 588 kts | 88° |
| 2026-04-22 03:29 | 33.90926 | -126.67034 | 35182 ft | 589 kts | 88° |
| 2026-04-22 03:30 | 33.91035 | -126.57187 | 35180 ft | 589 kts | 88° |
| 2026-04-22 03:30 | 33.91137 | -126.47321 | 35175 ft | 589 kts | 88° |
| 2026-04-22 03:31 | 33.91230 | -126.37448 | 35177 ft | 590 kts | 88° |
| 2026-04-22 03:31 | 33.91316 | -126.27573 | 35177 ft | 590 kts | 88° |
| 2026-04-22 03:32 | 33.91394 | -126.17753 | 35175 ft | 590 kts | 88° |
| 2026-04-22 03:32 | 33.91464 | -126.07863 | 35177 ft | 591 kts | 88° |
| 2026-04-22 03:33 | 33.91527 | -125.97980 | 35176 ft | 591 kts | 88° |
| 2026-04-22 03:33 | 33.91581 | -125.88091 | 35174 ft | 591 kts | 88° |
| 2026-04-22 03:34 | 33.91628 | -125.78194 | 35178 ft | 591 kts | 88° |
| 2026-04-22 03:34 | 33.91667 | -125.68365 | 35177 ft | 591 kts | 88° |
| 2026-04-22 03:35 | 33.91698 | -125.58460 | 35175 ft | 592 kts | 88° |
| 2026-04-22 03:35 | 33.91721 | -125.48553 | 35175 ft | 592 kts | 88° |
| 2026-04-22 03:36 | 33.91736 | -125.38650 | 35176 ft | 592 kts | 88° |
| 2026-04-22 03:36 | 33.91743 | -125.28726 | 35175 ft | 593 kts | 88° |
| 2026-04-22 03:37 | 33.91742 | -125.18805 | 35175 ft | 593 kts | 88° |
| 2026-04-22 03:37 | 33.91734 | -125.08946 | 35176 ft | 593 kts | 88° |
| 2026-04-22 03:38 | 33.91718 | -124.99002 | 35172 ft | 594 kts | 88° |
| 2026-04-22 03:38 | 33.92213 | -124.89122 | 35179 ft | 590 kts | 79° |
| 2026-04-22 03:39 | 33.93887 | -124.79494 | 35182 ft | 586 kts | 72° |
| 2026-04-22 03:39 | 33.95786 | -124.69942 | 35180 ft | 587 kts | 72° |
| 2026-04-22 03:40 | 33.97620 | -124.60427 | 35176 ft | 587 kts | 73° |
| 2026-04-22 03:40 | 33.99413 | -124.50823 | 35171 ft | 587 kts | 73° |
| 2026-04-22 03:41 | 34.01187 | -124.41211 | 35180 ft | 588 kts | 73° |
| 2026-04-22 03:41 | 34.02959 | -124.31598 | 35173 ft | 588 kts | 73° |
| 2026-04-22 03:42 | 34.04730 | -124.21975 | 35172 ft | 588 kts | 73° |
| 2026-04-22 03:42 | 34.06491 | -124.12361 | 35166 ft | 588 kts | 73° |
| 2026-04-22 03:43 | 34.08235 | -124.02793 | 35168 ft | 588 kts | 73° |
| 2026-04-22 03:43 | 34.09984 | -123.93157 | 35171 ft | 588 kts | 73° |
| 2026-04-22 03:44 | 34.11722 | -123.83527 | 35170 ft | 588 kts | 73° |
| 2026-04-22 03:44 | 34.13456 | -123.73881 | 35165 ft | 588 kts | 73° |
| 2026-04-22 03:45 | 34.15182 | -123.64231 | 35167 ft | 588 kts | 73° |
| 2026-04-22 03:45 | 34.16890 | -123.54633 | 35167 ft | 588 kts | 73° |
| 2026-04-22 03:46 | 34.18602 | -123.44969 | 35164 ft | 589 kts | 73° |
| 2026-04-22 03:46 | 34.20307 | -123.35293 | 35165 ft | 589 kts | 73° |
| 2026-04-22 03:47 | 34.22005 | -123.25616 | 35168 ft | 589 kts | 73° |
| 2026-04-22 03:47 | 34.23695 | -123.15934 | 35166 ft | 589 kts | 74° |
| 2026-04-22 03:48 | 34.24714 | -123.06077 | 35166 ft | 594 kts | 84° |
| 2026-04-22 03:48 | 34.24484 | -122.96132 | 35166 ft | 597 kts | 92° |
| 2026-04-22 03:49 | 34.23936 | -122.86135 | 35157 ft | 597 kts | 92° |
| 2026-04-22 03:49 | 34.23422 | -122.76122 | 35157 ft | 596 kts | 91° |
| 2026-04-22 03:50 | 34.22958 | -122.66122 | 35158 ft | 596 kts | 91° |
| 2026-04-22 03:50 | 34.22502 | -122.56129 | 35163 ft | 596 kts | 91° |
| 2026-04-22 03:51 | 34.22032 | -122.46135 | 35157 ft | 595 kts | 91° |
| 2026-04-22 03:51 | 34.21551 | -122.36220 | 35160 ft | 595 kts | 91° |
| 2026-04-22 03:52 | 34.21058 | -122.26240 | 35154 ft | 595 kts | 92° |
| 2026-04-22 03:52 | 34.20558 | -122.16259 | 35153 ft | 595 kts | 92° |
| 2026-04-22 03:53 | 34.20051 | -122.06287 | 35153 ft | 595 kts | 92° |
| 2026-04-22 03:53 | 34.19535 | -121.96305 | 35157 ft | 595 kts | 92° |
| 2026-04-22 03:54 | 34.19014 | -121.86402 | 35159 ft | 595 kts | 92° |
| 2026-04-22 03:54 | 34.18481 | -121.76425 | 35154 ft | 595 kts | 92° |
| 2026-04-22 03:55 | 34.17941 | -121.66454 | 35158 ft | 595 kts | 92° |
| 2026-04-22 03:55 | 34.17394 | -121.56488 | 35158 ft | 595 kts | 92° |
| 2026-04-22 03:56 | 34.16843 | -121.46602 | 35148 ft | 594 kts | 92° |
| 2026-04-22 03:56 | 34.16563 | -121.41660 | 35138 ft | 582 kts | 92° |
| 2026-04-22 03:56 | 34.16289 | -121.36851 | 35079 ft | 567 kts | 92° |
| 2026-04-22 03:57 | 34.16019 | -121.32144 | 34744 ft | 558 kts | 92° |
| 2026-04-22 03:57 | 34.15751 | -121.27484 | 34071 ft | 557 kts | 92° |
| 2026-04-22 03:57 | 34.15482 | -121.22806 | 33129 ft | 560 kts | 92° |
| 2026-04-22 03:57 | 34.15210 | -121.18108 | 32237 ft | 561 kts | 92° |
| 2026-04-22 03:58 | 34.14936 | -121.13415 | 31402 ft | 561 kts | 93° |
| 2026-04-22 03:58 | 34.14659 | -121.08728 | 30579 ft | 560 kts | 93° |
| 2026-04-22 03:58 | 34.14380 | -121.04037 | 29660 ft | 560 kts | 93° |
| 2026-04-22 03:58 | 34.14195 | -121.00936 | 29112 ft | 557 kts | 94° |
| 2026-04-22 03:59 | 34.13989 | -120.94810 | 28272 ft | 546 kts | 86° |
| 2026-04-22 03:59 | 34.14257 | -120.90271 | 27679 ft | 539 kts | 82° |
| 2026-04-22 03:59 | 34.14693 | -120.85802 | 27068 ft | 533 kts | 81° |
| 2026-04-22 03:59 | 34.15168 | -120.81389 | 26439 ft | 528 kts | 81° |
| 2026-04-22 04:00 | 34.15618 | -120.77008 | 25828 ft | 524 kts | 82° |
| 2026-04-22 04:00 | 34.16022 | -120.72659 | 25244 ft | 519 kts | 82° |
| 2026-04-22 04:00 | 34.16267 | -120.69796 | 24870 ft | 516 kts | 83° |
| 2026-04-22 04:00 | 34.16710 | -120.64245 | 24173 ft | 510 kts | 83° |
| 2026-04-22 04:01 | 34.16984 | -120.60688 | 23803 ft | 505 kts | 84° |
| 2026-04-22 04:01 | 34.17304 | -120.56496 | 23353 ft | 498 kts | 84° |
| 2026-04-22 04:02 | 34.17623 | -120.52345 | 22958 ft | 495 kts | 84° |
| 2026-04-22 04:02 | 34.17944 | -120.48206 | 22580 ft | 496 kts | 84° |
| 2026-04-22 04:02 | 34.18266 | -120.44057 | 22199 ft | 496 kts | 84° |
| 2026-04-22 04:02 | 34.18555 | -120.40318 | 21870 ft | 494 kts | 84° |
| 2026-04-22 04:03 | 34.18873 | -120.36195 | 21496 ft | 491 kts | 84° |
| 2026-04-22 04:03 | 34.19187 | -120.32096 | 21129 ft | 489 kts | 84° |
| 2026-04-22 04:03 | 34.19439 | -120.28018 | 20807 ft | 485 kts | 86° |
| 2026-04-22 04:03 | 34.19585 | -120.23966 | 20490 ft | 482 kts | 88° |
| 2026-04-22 04:04 | 34.19698 | -120.19931 | 20171 ft | 479 kts | 88° |
| 2026-04-22 04:04 | 34.19820 | -120.15927 | 19865 ft | 475 kts | 88° |
| 2026-04-22 04:04 | 34.19957 | -120.11982 | 19559 ft | 466 kts | 87° |
| 2026-04-22 04:04 | 34.20099 | -120.08163 | 19247 ft | 457 kts | 87° |
| 2026-04-22 04:05 | 34.20207 | -120.04367 | 19010 ft | 446 kts | 90° |
| 2026-04-22 04:05 | 34.20197 | -120.00657 | 18698 ft | 439 kts | 91° |
| 2026-04-22 04:05 | 34.20131 | -119.97001 | 18354 ft | 432 kts | 92° |
| 2026-04-22 04:05 | 34.20052 | -119.93385 | 17957 ft | 427 kts | 92° |
| 2026-04-22 04:06 | 34.19978 | -119.89828 | 17624 ft | 421 kts | 92° |
| 2026-04-22 04:06 | 34.19913 | -119.86312 | 17327 ft | 417 kts | 92° |
| 2026-04-22 04:06 | 34.19857 | -119.82832 | 17056 ft | 413 kts | 92° |
| 2026-04-22 04:06 | 34.19805 | -119.79369 | 16782 ft | 410 kts | 92° |
| 2026-04-22 04:07 | 34.19755 | -119.75938 | 16515 ft | 407 kts | 92° |
| 2026-04-22 04:07 | 34.19706 | -119.72531 | 16248 ft | 404 kts | 92° |
| 2026-04-22 04:07 | 34.19657 | -119.69194 | 15995 ft | 402 kts | 92° |
| 2026-04-22 04:07 | 34.19607 | -119.65829 | 15732 ft | 400 kts | 92° |
| 2026-04-22 04:08 | 34.19555 | -119.62484 | 15473 ft | 398 kts | 92° |
| 2026-04-22 04:08 | 34.19503 | -119.59150 | 15211 ft | 396 kts | 93° |
| 2026-04-22 04:08 | 34.19450 | -119.55825 | 14959 ft | 395 kts | 93° |
| 2026-04-22 04:08 | 34.19397 | -119.52515 | 14700 ft | 394 kts | 93° |
| 2026-04-22 04:09 | 34.19342 | -119.49212 | 14443 ft | 393 kts | 93° |
| 2026-04-22 04:09 | 34.19287 | -119.45912 | 14181 ft | 392 kts | 93° |
| 2026-04-22 04:09 | 34.19232 | -119.42625 | 13926 ft | 391 kts | 93° |
| 2026-04-22 04:09 | 34.19175 | -119.39349 | 13643 ft | 390 kts | 93° |
| 2026-04-22 04:10 | 34.19118 | -119.36124 | 13374 ft | 388 kts | 93° |
| 2026-04-22 04:10 | 34.19063 | -119.32871 | 13106 ft | 386 kts | 93° |
| 2026-04-22 04:10 | 34.19011 | -119.29635 | 12851 ft | 384 kts | 93° |
| 2026-04-22 04:10 | 34.18960 | -119.26425 | 12600 ft | 381 kts | 93° |
| 2026-04-22 04:11 | 34.18907 | -119.23234 | 12345 ft | 379 kts | 93° |
| 2026-04-22 04:11 | 34.18854 | -119.20060 | 12101 ft | 376 kts | 93° |
| 2026-04-22 04:11 | 34.18800 | -119.16910 | 11849 ft | 374 kts | 93° |
| 2026-04-22 04:11 | 34.18747 | -119.13789 | 11603 ft | 370 kts | 93° |
| 2026-04-22 04:12 | 34.18692 | -119.10705 | 11353 ft | 364 kts | 93° |
| 2026-04-22 04:12 | 34.18634 | -119.07723 | 11113 ft | 353 kts | 95° |
| 2026-04-22 04:12 | 34.18165 | -119.04905 | 10977 ft | 333 kts | 117° |
| 2026-04-22 04:12 | 34.17204 | -119.02443 | 10900 ft | 320 kts | 121° |
| 2026-04-22 04:13 | 34.16231 | -119.00040 | 10830 ft | 318 kts | 121° |
| 2026-04-22 04:13 | 34.15265 | -118.97643 | 10737 ft | 316 kts | 120° |
| 2026-04-22 04:13 | 34.14314 | -118.95256 | 10666 ft | 314 kts | 120° |
| 2026-04-22 04:13 | 34.13376 | -118.92887 | 10590 ft | 313 kts | 120° |
| 2026-04-22 04:14 | 34.12444 | -118.90520 | 10523 ft | 311 kts | 120° |
| 2026-04-22 04:14 | 34.11517 | -118.88161 | 10429 ft | 311 kts | 120° |
| 2026-04-22 04:14 | 34.10593 | -118.85807 | 10366 ft | 310 kts | 120° |
| 2026-04-22 04:14 | 34.09685 | -118.83491 | 10277 ft | 309 kts | 120° |
| 2026-04-22 04:15 | 34.08767 | -118.81150 | 10219 ft | 309 kts | 120° |
| 2026-04-22 04:15 | 34.07857 | -118.78832 | 10129 ft | 304 kts | 120° |
| 2026-04-22 04:15 | 34.06956 | -118.76540 | 10047 ft | 300 kts | 120° |
| 2026-04-22 04:15 | 34.06067 | -118.74275 | 9866 ft | 300 kts | 120° |
| 2026-04-22 04:16 | 34.05175 | -118.72003 | 9611 ft | 299 kts | 120° |
| 2026-04-22 04:16 | 34.03404 | -118.67492 | 9124 ft | 295 kts | 119° |
| 2026-04-22 04:16 | 34.02747 | -118.65181 | 8861 ft | 291 kts | 103° |
| 2026-04-22 04:17 | 34.02511 | -118.62767 | 8651 ft | 289 kts | 97° |
| 2026-04-22 04:17 | 34.02341 | -118.60359 | 8454 ft | 288 kts | 98° |
| 2026-04-22 04:17 | 34.02149 | -118.57993 | 8244 ft | 287 kts | 98° |
| 2026-04-22 04:17 | 34.01937 | -118.55600 | 8032 ft | 287 kts | 98° |
| 2026-04-22 04:18 | 34.01721 | -118.53209 | 7792 ft | 287 kts | 98° |
| 2026-04-22 04:18 | 34.01498 | -118.50817 | 7545 ft | 288 kts | 98° |
| 2026-04-22 04:18 | 34.01273 | -118.48426 | 7304 ft | 287 kts | 98° |
| 2026-04-22 04:18 | 34.01061 | -118.46048 | 7049 ft | 282 kts | 95° |
| 2026-04-22 04:19 | 34.01234 | -118.43718 | 6815 ft | 278 kts | 79° |
| 2026-04-22 04:19 | 34.01659 | -118.41462 | 6586 ft | 274 kts | 78° |
| 2026-04-22 04:19 | 34.02086 | -118.39238 | 6359 ft | 271 kts | 78° |
| 2026-04-22 04:19 | 34.02486 | -118.37044 | 6142 ft | 266 kts | 78° |
| 2026-04-22 04:20 | 34.02847 | -118.34898 | 6039 ft | 256 kts | 82° |
| 2026-04-22 04:20 | 34.03076 | -118.32789 | 5748 ft | 255 kts | 84° |
| 2026-04-22 04:20 | 34.03279 | -118.30646 | 5324 ft | 260 kts | 84° |
| 2026-04-22 04:20 | 34.03324 | -118.28518 | 5112 ft | 248 kts | 104° |
| 2026-04-22 04:21 | 34.02596 | -118.26697 | 4891 ft | 237 kts | 128° |
| 2026-04-22 04:21 | 34.01612 | -118.25133 | 4625 ft | 232 kts | 125° |
| 2026-04-22 04:21 | 34.01058 | -118.23322 | 4217 ft | 234 kts | 91° |
| 2026-04-22 04:21 | 34.01253 | -118.21438 | 4063 ft | 219 kts | 83° |
| 2026-04-22 04:22 | 34.01490 | -118.19611 | 4054 ft | 226 kts | 80° |
| 2026-04-22 04:22 | 34.01780 | -118.17713 | 4126 ft | 233 kts | 80° |
| 2026-04-22 04:22 | 34.01949 | -118.15765 | 4102 ft | 236 kts | 87° |
| 2026-04-22 04:22 | 34.02113 | -118.13780 | 4035 ft | 238 kts | 82° |
| 2026-04-22 04:23 | 34.02341 | -118.11851 | 4010 ft | 233 kts | 81° |
| 2026-04-22 04:23 | 34.02488 | -118.09933 | 3987 ft | 227 kts | 97° |
| 2026-04-22 04:23 | 34.01916 | -118.08196 | 4019 ft | 227 kts | 132° |
| 2026-04-22 04:23 | 34.00642 | -118.07107 | 4027 ft | 228 kts | 165° |
| 2026-04-22 04:24 | 33.99097 | -118.07023 | 4018 ft | 222 kts | 198° |
| 2026-04-22 04:24 | 33.97805 | -118.07940 | 4020 ft | 214 kts | 228° |
| 2026-04-22 04:24 | 33.97117 | -118.09466 | 4006 ft | 206 kts | 258° |
| 2026-04-22 04:24 | 33.96836 | -118.11186 | 4032 ft | 214 kts | 259° |
| 2026-04-22 04:25 | 33.96527 | -118.12972 | 4025 ft | 219 kts | 258° |
| 2026-04-22 04:25 | 33.96209 | -118.14746 | 3980 ft | 219 kts | 259° |
| 2026-04-22 04:25 | 33.95962 | -118.16528 | 3678 ft | 224 kts | 263° |
| 2026-04-22 04:25 | 33.95763 | -118.18372 | 3427 ft | 222 kts | 263° |
| 2026-04-22 04:26 | 33.95577 | -118.20202 | 3130 ft | 220 kts | 263° |
| 2026-04-22 04:26 | 33.95393 | -118.22009 | 2829 ft | 212 kts | 264° |
| 2026-04-22 04:26 | 33.95220 | -118.23714 | 2543 ft | 197 kts | 263° |
| 2026-04-22 04:26 | 33.95061 | -118.25267 | 2300 ft | 179 kts | 264° |
| 2026-04-22 04:27 | 33.94917 | -118.26676 | 2074 ft | 158 kts | 263° |
| 2026-04-22 04:27 | 33.94794 | -118.27893 | 1854 ft | 138 kts | 263° |
| 2026-04-22 04:27 | 33.94675 | -118.29058 | 1704 ft | 143 kts | 264° |
| 2026-04-22 04:27 | 33.94552 | -118.30263 | 1491 ft | 145 kts | 264° |
| 2026-04-22 04:28 | 33.94432 | -118.31439 | 1292 ft | 143 kts | 263° |
| 2026-04-22 04:28 | 33.94312 | -118.32622 | 1101 ft | 142 kts | 263° |
| 2026-04-22 04:28 | 33.94192 | -118.33792 | 878 ft | 140 kts | 263° |
| 2026-04-22 04:28 | 33.94075 | -118.34946 | 697 ft | 140 kts | 264° |
| 2026-04-22 04:29 | 33.93963 | -118.36070 | 582 ft | 140 kts | 264° |
| 2026-04-22 04:29 | 33.93856 | -118.37262 | 363 ft | 142 kts | 262° |
| 2026-04-22 04:29 | 33.93734 | -118.38394 | 169 ft | 132 kts | 262° |
| 2026-04-22 04:29 | 33.93620 | -118.39387 | 140 ft | 106 kts | 261° |
| 2026-04-22 04:30 | 33.93537 | -118.40223 | 126 ft | 91 kts | 263° |
| 2026-04-22 04:30 | 33.93476 | -118.40832 | 126 ft | 51 kts | 262° |
| 2026-04-22 04:30 | 33.93534 | -118.41175 | 126 ft | 0 kts | 284° |
| 2026-04-22 04:31 | 33.93536 | -118.41184 | 126 ft | 9 kts | 284° |
| 2026-04-22 04:31 | 33.93619 | -118.41262 | 128 ft | 19 kts | 349° |
| 2026-04-22 04:31 | 33.93710 | -118.41273 | 128 ft | 0 kts | 12° |
| 2026-04-22 04:32 | 33.93731 | -118.41255 | 125 ft | 14 kts | 47° |
| 2026-04-22 04:32 | 33.93765 | -118.41084 | 127 ft | 28 kts | 82° |
| 2026-04-22 04:32 | 33.93799 | -118.40775 | 127 ft | 39 kts | 83° |
| 2026-04-22 04:32 | 33.93834 | -118.40459 | 129 ft | 38 kts | 82° |
| 2026-04-22 04:33 | 33.93862 | -118.40167 | 127 ft | 33 kts | 83° |
| 2026-04-22 04:33 | 33.93889 | -118.39892 | 129 ft | 32 kts | 79° |
| 2026-04-22 04:33 | 33.93971 | -118.39820 | 128 ft | 15 kts | 354° |
| 2026-04-22 04:33 | 33.94070 | -118.39826 | 126 ft | 14 kts | 6° |
| 2026-04-22 04:34 | 33.94151 | -118.39829 | 128 ft | 0 kts | 5° |
| 2026-04-22 04:34 | 33.94153 | -118.39828 | 128 ft | 1 kts | 13° |
| 2026-04-22 04:34 | 33.94156 | -118.39825 | 126 ft | 1 kts | 29° |
| 2026-04-22 04:34 | 33.94161 | -118.39812 | 126 ft | 5 kts | 72° |
| 2026-04-22 04:35 | 33.94166 | -118.39779 | 128 ft | 0 kts | 80° |
| 2026-04-22 04:35 | 33.94165 | -118.39787 | 130 ft | 0 kts | 80° |